Time;durP1;ratioP1;P1;durP2;ratioP2;P2;SDS_P1;SDS_P2;PMS_P1;PMS_P2;Temp;Humidity;BMP_temperature;BMP_pressure;BME280_temperature;BME280_humidity;BME280_pressure;Samples;Min_cycle;Max_cycle;Signal;HPM_P1;HPM_P2
2021/03/05 00:00:19;;;;;;;21.87;16.63;;;10.00;94.30;;;9.68;90.24;98161.03;5080257;28;20628;-72
2021/03/05 00:02:52;;;;;;;21.20;15.50;;;9.90;94.90;;;9.67;89.85;98161.94;5074600;28;20738;-72
2021/03/05 00:05:31;;;;;;;22.70;16.20;;;9.90;94.90;;;9.58;89.47;98161.69;5083258;28;20707;-72
2021/03/05 00:07:59;;;;;;;22.33;16.70;;;9.80;94.80;;;9.53;90.13;98163.75;5079372;28;20743;-72
2021/03/05 00:10:30;;;;;;;21.97;16.77;;;9.80;94.80;;;9.45;90.33;98166.00;5078900;28;20634;-72
2021/03/05 00:12:58;;;;;;;27.43;18.50;;;9.70;94.80;;;9.35;89.66;98170.13;5070708;28;20634;-72
2021/03/05 00:15:31;;;;;;;25.63;18.67;;;9.60;94.70;;;9.30;89.05;98179.97;5084080;28;20626;-72
2021/03/05 00:17:58;;;;;;;26.20;19.27;;;9.60;94.70;;;9.26;89.80;98180.25;5069549;28;20635;-72
2021/03/05 00:20:29;;;;;;;24.27;19.33;;;9.50;94.70;;;9.20;89.21;98186.69;5072430;28;20701;-72
2021/03/05 00:22:59;;;;;;;25.77;20.23;;;9.50;94.60;;;9.17;90.09;98183.41;5073624;28;20618;-72
2021/03/05 00:25:28;;;;;;;27.20;19.77;;;9.40;94.50;;;9.12;89.55;98188.88;5078640;28;21247;-72
2021/03/05 00:27:56;;;;;;;26.30;19.70;;;9.40;94.60;;;9.05;90.22;98182.41;5065122;28;20636;-72
2021/03/05 00:30:24;;;;;;;29.33;19.70;;;9.30;94.50;;;9.06;89.94;98189.25;5069999;28;20731;-72
2021/03/05 00:32:51;;;;;;;26.93;20.50;;;9.30;94.70;;;9.05;89.46;98191.97;5061725;28;21162;-72
2021/03/05 00:35:20;;;;;;;26.90;19.90;;;9.30;94.70;;;9.02;89.09;98187.78;5072569;28;20724;-72
2021/03/05 00:37:50;;;;;;;27.77;20.47;;;9.30;94.80;;;9.02;89.05;98187.78;5067773;28;20674;-72
2021/03/05 00:40:21;;;;;;;24.50;19.17;;;9.30;94.80;;;8.94;89.70;98194.38;5059255;28;21756;-72
2021/03/05 00:42:50;;;;;;;23.37;17.50;;;9.20;94.50;;;8.86;89.55;98193.19;5054886;28;20725;-72
2021/03/05 00:45:21;;;;;;;23.27;17.27;;;9.10;94.40;;;8.79;89.48;98190.09;5066904;28;20608;-72
2021/03/05 00:47:51;;;;;;;23.23;17.20;;;9.00;94.10;;;8.72;88.51;98203.53;5070515;28;20748;-72
2021/03/05 00:50:21;;;;;;;24.67;18.20;;;9.00;94.30;;;8.68;88.49;98202.06;5066697;28;20750;-72
2021/03/05 00:52:51;;;;;;;24.90;16.93;;;8.90;93.70;;;8.61;87.76;98205.94;5069477;28;20634;-72
2021/03/05 00:55:23;;;;;;;24.97;16.67;;;8.90;93.30;;;8.48;86.57;98211.03;5061207;28;20636;-72
2021/03/05 00:57:54;;;;;;;24.53;16.87;;;8.80;93.40;;;8.41;87.98;98215.84;5065826;28;21143;-72
2021/03/05 01:00:25;;;;;;;25.97;17.90;;;8.70;93.20;;;8.30;88.12;98216.47;5069797;28;20638;-72
2021/03/05 01:02:53;;;;;;;26.07;17.67;;;8.60;93.20;;;8.20;87.15;98220.50;5072786;28;20686;-72
2021/03/05 01:05:21;;;;;;;30.33;18.10;;;8.40;93.40;;;8.17;87.40;98225.03;5037137;28;20985;-72
2021/03/05 01:07:49;;;;;;;28.60;19.07;;;8.50;93.50;;;8.14;87.84;98231.22;5053491;28;20706;-72
2021/03/05 01:10:28;;;;;;;32.87;20.30;;;8.40;93.80;;;8.10;87.51;98229.72;5061163;28;20658;-72
2021/03/05 01:12:57;;;;;;;26.93;18.10;;;8.40;93.70;;;8.08;88.47;98231.53;5058590;28;20625;-72
2021/03/05 01:15:24;;;;;;;31.90;20.80;;;8.40;93.80;;;8.08;87.81;98223.75;5063920;28;20632;-72
2021/03/05 01:17:52;;;;;;;33.73;22.33;;;8.40;93.80;;;7.98;87.82;98227.81;5064625;28;20694;-72
2021/03/05 01:20:25;;;;;;;33.17;20.90;;;8.30;93.80;;;7.92;89.00;98235.06;5060659;28;20636;-72
2021/03/05 01:22:53;;;;;;;37.00;22.50;;;8.20;93.70;;;7.91;88.68;98237.75;5055800;28;20643;-72
2021/03/05 01:25:24;;;;;;;31.37;20.83;;;8.20;93.80;;;7.84;89.22;98244.22;5061240;28;20636;-72
2021/03/05 01:27:53;;;;;;;29.50;20.77;;;8.10;93.80;;;7.82;87.81;98238.25;5067318;28;20706;-72
2021/03/05 01:30:22;;;;;;;30.87;21.33;;;8.10;93.70;;;7.76;87.06;98233.44;5066597;28;20720;-72
2021/03/05 01:32:51;;;;;;;34.17;21.90;;;8.00;93.40;;;7.72;88.56;98242.31;5068728;28;20722;-72
2021/03/05 01:35:24;;;;;;;31.10;20.47;;;8.00;93.50;;;7.72;87.68;98240.53;5063060;28;20651;-72
2021/03/05 01:37:52;;;;;;;27.73;20.30;;;8.00;93.70;;;7.71;87.57;98235.44;5057765;28;20625;-72
2021/03/05 01:40:28;;;;;;;35.23;21.90;;;8.00;93.30;;;7.65;87.79;98247.00;5065231;28;20710;-72
2021/03/05 01:42:57;;;;;;;28.73;19.63;;;7.90;93.40;;;7.70;86.85;98247.56;5078415;28;20647;-72
2021/03/05 01:45:28;;;;;;;26.90;18.63;;;8.00;93.50;;;7.68;87.03;98246.84;5064417;28;20639;-72
2021/03/05 01:48:00;;;;;;;25.77;18.17;;;7.90;93.40;;;7.54;87.07;98254.50;5073000;28;21170;-72
2021/03/05 01:50:32;;;;;;;28.90;19.50;;;7.80;93.20;;;7.46;88.00;98252.41;5062682;28;21216;-74
2021/03/05 01:53:03;;;;;;;27.90;18.77;;;7.70;93.40;;;7.49;87.33;98268.66;5067170;28;20634;-73
2021/03/05 01:55:31;;;;;;;25.13;17.80;;;7.80;93.90;;;7.49;87.12;98271.25;5065905;28;20693;-73
2021/03/05 01:58:00;;;;;;;28.83;19.43;;;7.70;93.40;;;7.44;87.99;98262.84;5064956;28;20627;-73
2021/03/05 02:00:37;;;;;;;27.67;17.70;;;7.70;93.50;;;7.47;88.58;98267.88;5065966;28;20684;-73
2021/03/05 02:03:06;;;;;;;25.93;17.57;;;7.70;93.70;;;7.49;88.12;98268.66;5065736;28;20623;-73
2021/03/05 02:05:36;;;;;;;27.60;19.30;;;7.70;93.60;;;7.47;88.47;98262.69;5054088;28;20617;-73
2021/03/05 02:08:06;;;;;;;27.23;18.67;;;7.70;93.50;;;7.43;87.92;98268.13;5052125;28;20714;-73
2021/03/05 02:10:33;;;;;;;27.67;18.67;;;7.70;93.50;;;7.38;88.14;98259.75;5044539;28;20681;-73
2021/03/05 02:13:03;;;;;;;23.93;17.70;;;7.60;93.70;;;7.35;87.87;98275.50;5068997;28;20647;-73
2021/03/05 02:15:32;;;;;;;28.90;17.77;;;7.60;93.60;;;7.38;88.26;98277.91;5069948;28;20620;-73
2021/03/05 02:18:05;;;;;;;24.07;16.77;;;7.60;93.70;;;7.38;88.14;98271.00;5058173;28;20719;-73
2021/03/05 02:20:41;;;;;;;26.17;18.07;;;7.70;93.50;;;7.38;87.57;98283.09;5068748;28;20669;-73
2021/03/05 02:23:39;;;;;;;25.47;17.73;;;7.70;93.50;;;7.39;87.62;98282.19;5066280;28;20746;-73
2021/03/05 02:26:53;;;;;;;26.60;17.80;;;7.70;93.30;;;7.37;87.60;98286.63;5055354;28;20674;-73
2021/03/05 02:30:27;;;;;;;23.57;16.43;;;7.70;93.40;;;7.33;88.19;98288.53;5060590;28;20683;-73
2021/03/05 02:33:02;;;;;;;23.20;16.10;;;7.70;93.50;;;7.34;87.60;98287.63;5054466;28;20660;-73
2021/03/05 02:35:33;;;;;;;25.03;16.63;;;7.60;93.60;;;7.37;87.35;98291.84;5067997;28;20658;-73
2021/03/05 02:38:05;;;;;;;22.37;15.47;;;7.60;93.40;;;7.39;88.09;98295.16;5068008;28;20723;-73
2021/03/05 02:40:38;;;;;;;21.50;14.90;;;7.70;93.40;;;7.39;87.63;98295.16;5055079;28;20649;-73
2021/03/05 02:43:10;;;;;;;24.57;17.50;;;7.70;93.30;;;7.40;87.07;98297.69;5057752;28;20636;-73
2021/03/05 02:45:40;;;;;;;26.00;17.43;;;7.70;93.20;;;7.40;87.31;98305.47;5064207;28;20650;-73
2021/03/05 02:48:14;;;;;;;24.40;16.80;;;7.70;93.20;;;7.38;86.85;98293.47;5066815;28;20779;-73
2021/03/05 02:50:45;;;;;;;21.20;15.63;;;7.70;93.10;;;7.38;86.82;98302.13;5066296;28;20637;-73
2021/03/05 02:53:14;;;;;;;24.20;15.80;;;7.70;93.20;;;7.38;87.17;98309.91;5058587;28;20656;-73
2021/03/05 02:55:43;;;;;;;21.80;16.33;;;7.70;92.90;;;7.33;86.67;98308.47;5070046;28;20622;-73
2021/03/05 02:58:14;;;;;;;21.50;15.50;;;7.60;92.90;;;7.32;87.22;98312.81;5068068;28;20990;-73
2021/03/05 03:00:43;;;;;;;24.40;16.07;;;7.60;93.20;;;7.32;87.77;98312.81;5060322;28;20702;-73
2021/03/05 03:03:13;;;;;;;20.40;15.23;;;7.60;93.20;;;7.35;87.45;98314.41;5057660;28;20636;-73
2021/03/05 03:05:42;;;;;;;22.63;14.97;;;7.60;93.10;;;7.32;87.46;98322.34;5059807;28;20686;-73
2021/03/05 03:08:11;;;;;;;25.43;16.40;;;7.60;93.10;;;7.32;87.31;98315.41;5066742;28;21234;-73
2021/03/05 03:10:39;;;;;;;20.50;14.93;;;7.60;93.60;;;7.31;88.12;98320.69;5065103;28;21274;-73
2021/03/05 03:13:08;;;;;;;19.77;14.33;;;7.60;93.20;;;7.29;87.13;98325.94;5070621;28;20623;-73
2021/03/05 03:15:36;;;;;;;24.00;17.17;;;7.60;93.30;;;7.27;87.61;98321.75;5058822;28;20715;-73
2021/03/05 03:18:10;;;;;;;22.20;14.80;;;7.50;93.60;;;7.29;87.25;98330.28;5060635;28;20640;-73
2021/03/05 03:20:40;;;;;;;21.27;15.63;;;7.50;93.50;;;7.27;86.95;98332.94;5058612;28;20628;-73
2021/03/05 03:23:08;;;;;;;20.50;14.30;;;7.50;93.40;;;7.29;88.55;98325.09;5066307;28;20674;-73
2021/03/05 03:25:36;;;;;;;21.60;15.20;;;7.60;93.60;;;7.29;88.37;98333.72;5064624;28;20691;-73
2021/03/05 03:28:04;;;;;;;22.80;15.53;;;7.50;93.50;;;7.29;87.34;98325.09;5056236;28;20652;-73
2021/03/05 03:30:32;;;;;;;20.90;14.47;;;7.50;93.40;;;7.31;87.63;98338.84;5063321;28;20736;-73
2021/03/05 03:32:59;;;;;;;20.40;13.60;;;7.60;93.50;;;7.34;86.93;98336.91;5054157;28;20731;-73
2021/03/05 03:35:29;;;;;;;20.10;14.10;;;7.60;93.30;;;7.37;87.77;98344.53;5064442;28;20662;-73
2021/03/05 03:38:11;;;;;;;20.63;13.80;;;7.60;93.20;;;7.40;88.07;98348.75;5064347;28;20636;-73
2021/03/05 03:40:41;;;;;;;19.60;13.60;;;7.70;93.30;;;7.42;87.36;98357.28;5055005;28;20702;-73
2021/03/05 03:43:09;;;;;;;18.70;14.20;;;7.70;93.30;;;7.41;87.96;98351.22;5068764;28;20645;-73
2021/03/05 03:45:39;;;;;;;19.50;13.40;;;7.70;93.30;;;7.41;87.47;98356.41;5062756;28;20639;-73
2021/03/05 03:48:09;;;;;;;19.03;13.40;;;7.70;93.20;;;7.45;87.69;98355.34;5060910;28;20651;-73
2021/03/05 03:50:44;;;;;;;20.10;12.93;;;7.70;93.20;;;7.45;86.69;98352.75;5066924;28;20634;-73
2021/03/05 03:53:15;;;;;;;17.80;12.90;;;7.80;93.00;;;7.41;86.66;98353.81;5068695;28;20653;-73
2021/03/05 03:55:49;;;;;;;15.30;11.50;;;7.70;92.80;;;7.42;86.78;98352.09;5067844;28;20638;-73
2021/03/05 03:58:20;;;;;;;13.73;10.60;;;7.70;92.90;;;7.40;86.54;98346.16;5064197;28;20628;-73
2021/03/05 04:00:50;;;;;;;13.20;9.90;;;7.70;92.80;;;7.38;85.40;98346.22;5070407;28;20638;-73
2021/03/05 04:03:19;;;;;;;10.63;7.70;;;7.70;92.50;;;7.32;85.94;98358.66;5072708;28;20689;-73
2021/03/05 04:05:52;;;;;;;9.20;6.87;;;7.60;92.20;;;7.22;85.51;98358.28;5070415;28;20650;-73
2021/03/05 04:08:36;;;;;;;8.73;5.83;;;7.50;92.00;;;7.16;84.62;98368.97;5066988;28;21019;-73
2021/03/05 04:11:06;;;;;;;7.40;5.70;;;7.40;91.70;;;7.16;84.96;98366.38;5061438;28;20634;-73
2021/03/05 04:13:37;;;;;;;7.00;5.27;;;7.40;92.00;;;7.13;84.33;98366.53;5058841;28;20615;-73
2021/03/05 04:16:06;;;;;;;7.50;5.43;;;7.40;91.60;;;7.12;84.40;98370.03;5069767;28;20631;-73
2021/03/05 04:18:36;;;;;;;6.30;4.90;;;7.40;91.30;;;7.07;83.64;98371.19;5065450;28;20627;-73
2021/03/05 04:21:07;;;;;;;6.70;5.20;;;7.30;90.90;;;7.04;83.01;98368.75;5068661;28;21177;-73
2021/03/05 04:23:36;;;;;;;7.10;5.30;;;7.20;90.40;;;6.96;83.74;98372.63;5073173;28;20670;-73
2021/03/05 04:26:04;;;;;;;7.23;5.10;;;7.20;90.80;;;6.86;82.73;98377.44;5058776;28;20639;-73
2021/03/05 04:28:32;;;;;;;8.07;5.50;;;7.10;90.50;;;6.86;83.24;98381.78;5070850;28;20780;-73
2021/03/05 04:30:59;;;;;;;8.20;5.37;;;7.10;90.50;;;6.74;84.02;98377.22;5039274;28;20626;-73
2021/03/05 04:33:27;;;;;;;7.70;5.50;;;7.00;90.70;;;6.74;82.79;98383.22;5067490;28;20710;-73
2021/03/05 04:35:56;;;;;;;8.70;5.78;;;7.00;90.40;;;6.70;82.92;98388.63;5054907;28;20782;-73
2021/03/05 04:38:24;;;;;;;8.50;5.80;;;6.90;90.30;;;6.64;82.99;98399.28;5061689;28;20253;-73
2021/03/05 04:40:52;;;;;;;8.57;5.83;;;6.90;90.40;;;6.60;82.98;98400.38;5067472;28;20644;-73
2021/03/05 04:43:20;;;;;;;8.83;5.80;;;6.80;90.30;;;6.63;82.41;98401.03;5064696;28;20637;-73
2021/03/05 04:45:48;;;;;;;9.70;6.23;;;6.80;90.30;;;6.59;83.22;98404.69;5063855;28;21178;-73
2021/03/05 04:48:17;;;;;;;9.83;6.13;;;6.80;90.40;;;6.54;82.19;98399.78;5068012;28;21239;-73
2021/03/05 04:50:45;;;;;;;8.63;5.97;;;6.80;89.60;;;6.53;82.66;98411.09;5058771;28;20990;-73
2021/03/05 04:53:15;;;;;;;8.00;5.60;;;6.80;90.00;;;6.48;83.61;98421.66;5052846;28;20630;-73
2021/03/05 04:55:43;;;;;;;9.07;5.90;;;6.70;90.60;;;6.31;83.18;98421.59;5056152;28;20631;-73
2021/03/05 04:58:12;;;;;;;9.63;6.47;;;6.50;90.10;;;6.36;83.24;98419.63;5058033;28;20618;-73
2021/03/05 05:00:40;;;;;;;7.97;6.00;;;6.60;90.60;;;6.37;84.06;98421.28;5053258;28;20639;-73
2021/03/05 05:03:08;;;;;;;9.00;5.80;;;6.60;91.00;;;6.42;84.11;98424.53;5071778;28;20628;-73
2021/03/05 05:05:37;;;;;;;9.20;5.97;;;6.60;91.10;;;6.43;83.33;98421.00;5065543;28;20666;-73
2021/03/05 05:08:06;;;;;;;9.83;6.83;;;6.60;90.60;;;6.34;83.14;98434.38;5068481;28;20726;-73
2021/03/05 05:10:34;;;;;;;9.87;6.30;;;6.50;90.40;;;6.21;82.91;98433.28;5070642;28;20871;-73
2021/03/05 05:13:02;;;;;;;6.77;4.97;;;6.40;90.20;;;6.21;83.27;98435.88;5072387;28;20683;-73
2021/03/05 05:15:30;;;;;;;10.23;6.60;;;6.40;90.70;;;6.25;83.42;98433.97;5072440;28;21231;-73
2021/03/05 05:17:58;;;;;;;7.67;5.57;;;6.40;90.60;;;6.03;83.06;98424.66;5068653;28;20707;-73
2021/03/05 05:20:26;;;;;;;8.20;5.80;;;6.20;90.30;;;6.04;83.91;98434.13;5068032;28;20636;-73
2021/03/05 05:22:53;;;;;;;9.40;6.47;;;6.20;90.80;;;6.03;83.38;98435.88;5053605;28;21123;-73
2021/03/05 05:25:21;;;;;;;8.93;5.60;;;6.20;91.00;;;6.07;83.47;98439.16;5063365;28;20641;-73
2021/03/05 05:27:49;;;;;;;9.47;5.97;;;6.20;90.90;;;6.10;84.46;98440.72;5060606;28;20749;-73
2021/03/05 05:30:17;;;;;;;9.30;5.90;;;6.30;91.20;;;6.21;84.05;98448.00;5067871;28;20637;-73
2021/03/05 05:32:45;;;;;;;9.37;6.67;;;6.40;91.20;;;6.27;83.81;98453.72;5067487;28;20746;-73
2021/03/05 05:35:13;;;;;;;12.00;8.10;;;6.40;91.20;;;6.28;83.71;98441.59;5068378;28;20656;-73
2021/03/05 05:37:41;;;;;;;10.60;7.17;;;6.50;91.10;;;6.30;84.09;98448.41;5059892;28;21070;-73
2021/03/05 05:40:11;;;;;;;11.27;7.60;;;6.50;91.10;;;6.34;84.24;98449.94;5070838;28;20623;-73
2021/03/05 05:42:39;;;;;;;9.13;6.43;;;6.60;91.20;;;6.41;84.90;98453.09;5070575;28;21217;-73
2021/03/05 05:45:08;;;;;;;10.30;6.47;;;6.60;91.40;;;6.48;84.04;98447.56;5062652;28;20661;-73
2021/03/05 05:47:37;;;;;;;10.50;6.80;;;6.70;91.20;;;6.53;84.42;98455.13;5064728;28;20659;-73
2021/03/05 05:50:09;;;;;;;8.90;6.30;;;6.80;91.40;;;6.60;84.36;98460.78;5070569;28;20633;-73
2021/03/05 05:52:36;;;;;;;10.10;7.37;;;6.80;91.50;;;6.65;83.83;98455.38;5063806;28;20726;-73
2021/03/05 05:55:07;;;;;;;11.53;7.77;;;6.90;91.10;;;6.70;83.89;98461.19;5068290;28;20650;-73
2021/03/05 05:57:37;;;;;;;12.10;7.80;;;6.90;91.20;;;6.75;84.32;98461.78;5064824;28;20644;-73
2021/03/05 06:00:09;;;;;;;11.00;7.27;;;7.00;91.20;;;6.80;84.04;98460.69;5061200;28;20638;-73
2021/03/05 06:02:40;;;;;;;10.30;7.10;;;7.10;91.10;;;6.79;83.64;98460.75;5062820;28;20631;-74
2021/03/05 06:05:12;;;;;;;12.57;8.63;;;7.00;91.20;;;6.85;83.49;98468.22;5066635;28;20635;-74
2021/03/05 06:07:42;;;;;;;11.57;7.80;;;7.10;90.80;;;6.84;84.02;98470.00;5064430;28;20693;-74
2021/03/05 06:10:11;;;;;;;10.70;7.60;;;7.10;90.90;;;6.79;83.74;98484.91;5064419;28;20692;-73
2021/03/05 06:12:45;;;;;;;13.13;8.10;;;7.10;90.80;;;6.71;83.55;98483.59;5062598;28;20718;-73
2021/03/05 06:15:15;;;;;;;12.40;8.57;;;7.00;90.60;;;6.67;83.85;98492.41;5068714;28;20674;-72
2021/03/05 06:17:45;;;;;;;12.70;8.53;;;6.90;90.60;;;6.59;84.35;98487.59;5062017;28;20632;-72
2021/03/05 06:20:16;;;;;;;16.00;10.33;;;6.90;90.90;;;6.64;84.65;98489.97;5054384;28;20625;-72
2021/03/05 06:22:46;;;;;;;11.60;8.20;;;6.90;91.30;;;6.67;85.07;98490.66;5066937;28;20648;-72
2021/03/05 06:25:34;;;;;;;16.03;9.40;;;6.90;91.60;;;6.65;84.60;98494.25;5065197;28;20642;-72
2021/03/05 06:28:14;;;;;;;17.93;10.10;;;6.90;91.40;;;6.61;84.66;98496.16;5070038;28;20697;-72
2021/03/05 06:30:43;;;;;;;13.80;8.70;;;6.90;91.50;;;6.55;84.44;98505.94;5053214;28;20974;-72
2021/03/05 06:33:25;;;;;;;15.90;8.90;;;6.80;90.90;;;6.42;83.93;98510.00;5056262;28;20673;-72
2021/03/05 06:35:54;;;;;;;15.83;10.13;;;6.70;90.80;;;6.40;84.02;98514.41;5063260;28;20720;-72
2021/03/05 06:38:43;;;;;;;22.20;12.43;;;6.70;91.00;;;6.39;84.14;98515.31;5056207;28;20628;-72
2021/03/05 06:41:23;;;;;;;21.37;12.53;;;6.60;90.90;;;6.40;84.67;98521.34;5060815;28;20634;-72
2021/03/05 06:43:53;;;;;;;16.87;9.57;;;6.70;91.30;;;6.36;84.47;98524.97;5053010;28;20712;-72
2021/03/05 06:46:36;;;;;;;18.27;10.80;;;6.60;91.20;;;6.34;85.00;98521.63;5054460;28;20704;-72
2021/03/05 06:49:07;;;;;;;16.77;9.67;;;6.60;91.50;;;6.38;85.66;98528.34;5052779;28;20850;-72
2021/03/05 06:51:36;;;;;;;17.47;10.60;;;6.60;91.90;;;6.35;84.51;98533.66;5060023;28;20636;-72
2021/03/05 06:54:10;;;;;;;18.07;10.43;;;6.60;91.40;;;6.35;84.59;98542.25;5055793;28;20629;-73
2021/03/05 06:56:40;;;;;;;23.77;12.50;;;6.60;91.50;;;6.40;85.00;98544.66;5064349;28;20646;-72
2021/03/05 06:59:11;;;;;;;21.27;11.40;;;6.60;91.60;;;6.35;84.96;98544.84;5063213;28;20781;-73
2021/03/05 07:01:54;;;;;;;20.60;12.10;;;6.60;91.70;;;6.33;84.97;98546.69;5052166;28;20635;-73
2021/03/05 07:04:24;;;;;;;16.93;9.70;;;6.60;91.60;;;6.38;84.86;98551.66;5064411;28;21260;-72
2021/03/05 07:07:01;;;;;;;12.57;8.63;;;6.60;91.50;;;6.41;84.74;98551.53;5050328;28;20671;-72
2021/03/05 07:09:32;;;;;;;15.07;9.60;;;6.70;91.90;;;6.42;84.49;98548.88;5065322;28;20628;-71
2021/03/05 07:12:00;;;;;;;16.30;9.43;;;6.60;91.50;;;6.43;84.68;98560.06;5061329;28;21166;-72
2021/03/05 07:14:31;;;;;;;14.27;8.50;;;6.70;91.50;;;6.47;84.50;98559.84;5053920;28;20685;-72
2021/03/05 07:17:00;;;;;;;17.20;9.23;;;6.70;91.40;;;6.43;84.32;98563.47;5063708;28;21171;-71
2021/03/05 07:19:30;;;;;;;14.93;9.80;;;6.60;91.20;;;6.42;84.22;98567.00;5069376;28;21205;-71
2021/03/05 07:21:59;;;;;;;15.70;9.67;;;6.60;91.20;;;6.45;84.85;98576.34;5064166;28;20739;-71
2021/03/05 07:24:31;;;;;;;15.98;9.20;;;6.70;91.50;;;6.50;84.94;98575.25;5059194;28;20835;-72
2021/03/05 07:27:02;;;;;;;16.77;9.07;;;6.70;91.70;;;6.55;84.13;98578.47;5051985;28;20225;-71
2021/03/05 07:29:34;;;;;;;16.10;9.27;;;6.80;91.40;;;6.61;84.00;98583.38;5057218;28;20639;-72
2021/03/05 07:32:08;;;;;;;16.53;10.20;;;6.80;91.30;;;6.68;83.56;98589.97;5060465;28;20636;-72
2021/03/05 07:34:49;;;;;;;16.03;9.90;;;6.90;91.00;;;6.64;83.13;98591.84;5065473;28;20674;-72
2021/03/05 07:37:19;;;;;;;16.97;9.03;;;6.90;90.90;;;6.64;83.29;98586.66;5056063;28;21276;-72
2021/03/05 07:39:50;;;;;;;15.70;9.70;;;6.90;90.70;;;6.71;84.63;98597.63;5065478;28;20714;-73
2021/03/05 07:42:18;;;;;;;15.23;9.27;;;7.00;91.40;;;6.75;83.68;98607.78;5069295;28;20626;-73
2021/03/05 07:44:53;;;;;;;14.67;8.97;;;7.00;90.90;;;6.80;84.79;98610.16;5064312;28;20627;-73
2021/03/05 07:47:21;;;;;;;16.73;10.10;;;7.00;91.60;;;6.84;84.23;98609.97;5070276;28;20639;-73
2021/03/05 07:49:49;;;;;;;17.60;10.17;;;7.00;91.20;;;6.87;84.04;98604.63;5055234;28;20616;-74
2021/03/05 07:52:20;;;;;;;18.00;9.40;;;7.10;91.10;;;6.91;83.65;98610.50;5064977;28;20638;-73
2021/03/05 07:54:50;;;;;;;15.40;10.20;;;7.10;91.00;;;6.98;83.67;98611.94;5054420;28;20663;-74
2021/03/05 07:57:51;;;;;;;15.70;9.73;;;7.20;90.90;;;6.93;82.51;98612.13;5068655;28;20634;-74
2021/03/05 08:00:52;;;;;;;20.67;10.93;;;7.20;90.10;;;6.98;82.34;98619.69;5057708;28;20638;-74
2021/03/05 08:03:24;;;;;;;17.83;10.50;;;7.20;89.90;;;7.00;82.23;98623.88;5060964;28;20630;-74
2021/03/05 08:05:56;;;;;;;14.70;9.60;;;7.20;90.10;;;7.00;81.95;98626.47;5065405;28;20659;-74
2021/03/05 08:08:26;;;;;;;18.47;10.20;;;7.20;90.00;;;7.04;81.60;98631.47;5056541;28;20675;-74
2021/03/05 08:10:57;;;;;;;18.10;10.77;;;7.20;89.80;;;7.04;82.77;98626.28;5061072;28;20630;-74
2021/03/05 08:13:52;;;;;;;18.33;10.87;;;7.20;90.00;;;7.03;81.74;98628.09;5066619;28;20633;-74
2021/03/05 08:16:48;;;;;;;15.33;10.00;;;7.20;89.00;;;6.97;81.00;98625.78;5062757;28;21015;-75
2021/03/05 08:19:47;;;;;;;19.40;10.77;;;7.20;88.90;;;7.02;81.29;98634.19;5066919;28;20658;-75
2021/03/05 08:22:17;;;;;;;18.43;11.27;;;7.10;89.00;;;7.02;81.24;98639.38;5062420;28;21221;-75
2021/03/05 08:24:46;;;;;;;18.47;10.70;;;7.20;89.20;;;7.11;81.32;98640.66;5070608;28;20695;-75
2021/03/05 08:27:19;;;;;;;14.70;10.17;;;7.30;89.40;;;7.08;81.31;98639.94;5067561;28;20676;-74
2021/03/05 08:29:58;;;;;;;15.30;9.20;;;7.30;88.20;;;6.91;80.77;98639.84;5065537;28;20646;-74
2021/03/05 08:32:55;;;;;;;14.37;9.03;;;7.10;87.90;;;6.84;81.07;98638.47;5073698;28;20615;-76
2021/03/05 08:35:46;;;;;;;18.30;10.47;;;7.00;87.60;;;6.85;81.16;98640.13;5068630;28;20669;-75
2021/03/05 08:38:19;;;;;;;18.20;13.23;;;7.00;88.00;;;6.61;80.90;98650.75;5052380;28;20634;-75
2021/03/05 08:40:51;;;;;;;15.57;10.37;;;6.80;87.40;;;6.68;81.71;98647.81;5055703;28;20640;-75
2021/03/05 08:43:26;;;;;;;18.30;10.37;;;6.80;88.90;;;6.74;81.92;98657.09;5063464;28;20662;-75
2021/03/05 08:45:56;;;;;;;22.50;11.27;;;6.90;89.50;;;6.80;82.00;98664.59;5070841;28;20631;-75
2021/03/05 08:48:33;;;;;;;18.27;10.17;;;7.00;90.20;;;6.82;81.70;98658.41;5072759;28;21106;-75
2021/03/05 08:51:16;;;;;;;16.90;10.20;;;7.00;89.50;;;6.84;81.46;98655.75;5072844;28;20642;-75
2021/03/05 08:53:47;;;;;;;16.40;8.83;;;7.00;88.50;;;6.90;80.64;98665.84;5067303;28;21181;-75
2021/03/05 08:56:22;;;;;;;15.07;9.10;;;7.00;88.10;;;6.91;79.63;98658.00;5061589;28;21233;-75
2021/03/05 08:59:01;;;;;;;13.53;8.30;;;7.00;86.90;;;6.81;80.41;98661.06;5072972;28;20623;-75
2021/03/05 09:01:35;;;;;;;17.50;10.83;;;6.90;87.10;;;6.72;80.62;98658.88;5068113;28;20638;-75
2021/03/05 09:04:12;;;;;;;15.60;9.47;;;6.80;87.50;;;6.53;80.32;98664.97;5069429;28;21159;-74
2021/03/05 09:06:53;;;;;;;17.50;9.60;;;6.60;86.80;;;6.54;80.90;98664.91;5056529;28;20658;-74
2021/03/05 09:09:23;;;;;;;14.87;8.93;;;6.60;88.20;;;6.54;79.55;98666.63;5067066;28;20729;-74
2021/03/05 09:12:14;;;;;;;17.40;9.70;;;6.60;87.00;;;6.69;81.19;98661.59;5067691;28;21206;-74
2021/03/05 09:14:43;;;;;;;14.53;9.20;;;6.80;88.60;;;6.76;79.71;98661.28;5070513;28;20624;-74
2021/03/05 09:17:14;;;;;;;15.87;9.23;;;6.90;87.10;;;6.78;79.52;98662.06;5061683;28;20635;-74
2021/03/05 09:19:43;;;;;;;16.70;9.37;;;6.90;86.90;;;6.81;79.54;98669.72;5067280;28;20719;-74
2021/03/05 09:22:17;;;;;;;15.10;9.83;;;6.90;86.70;;;6.92;79.95;98669.25;5060660;28;20638;-74
2021/03/05 09:24:56;;;;;;;16.23;9.60;;;7.00;87.20;;;6.95;79.56;98674.28;5071397;28;20688;-75
2021/03/05 09:27:28;;;;;;;13.43;9.23;;;7.00;86.40;;;7.05;80.82;98676.38;5068589;28;20631;-75
2021/03/05 09:29:59;;;;;;;16.43;9.80;;;7.20;88.10;;;7.10;78.66;98688.22;5072711;28;20687;-75
2021/03/05 09:32:26;;;;;;;15.10;8.63;;;7.20;85.30;;;7.02;77.94;98689.47;5065313;28;20697;-75
2021/03/05 09:34:57;;;;;;;14.73;9.13;;;7.10;83.80;;;7.05;79.22;98694.50;5055204;28;20667;-75
2021/03/05 09:37:27;;;;;;;15.93;9.33;;;7.20;86.10;;;7.04;78.61;98693.69;5066781;28;20627;-74
2021/03/05 09:39:58;;;;;;;14.93;9.30;;;7.20;84.90;;;7.11;77.95;98691.66;5050677;28;20647;-74
2021/03/05 09:42:50;;;;;;;16.23;9.57;;;7.30;84.60;;;7.15;77.88;98700.97;5059041;28;20638;-74
2021/03/05 09:45:43;;;;;;;17.30;9.97;;;7.30;84.10;;;7.20;78.76;98701.59;5070731;28;20722;-74
2021/03/05 09:48:26;;;;;;;52.30;25.00;;;7.40;84.40;;;7.25;77.75;98708.28;5072666;28;20647;-74
2021/03/05 09:50:59;;;;;;;21.33;14.20;;;7.40;83.80;;;7.24;78.24;98713.53;5072337;28;21217;-74
2021/03/05 09:53:31;;;;;;;23.20;14.50;;;7.40;83.30;;;7.28;78.31;98708.16;5057550;28;20723;-74
2021/03/05 09:56:03;;;;;;;22.10;14.87;;;7.50;84.10;;;7.38;78.33;98714.59;5051774;28;20643;-74
2021/03/05 09:58:31;;;;;;;18.10;12.33;;;7.50;83.80;;;7.42;78.27;98715.31;5061268;28;21225;-74
2021/03/05 10:01:00;;;;;;;19.27;11.30;;;7.60;83.50;;;7.41;77.65;98713.59;5054562;28;21208;-75
2021/03/05 10:03:29;;;;;;;13.70;9.43;;;7.60;83.30;;;7.47;77.70;98721.94;5078580;28;20993;-75
2021/03/05 10:05:57;;;;;;;16.60;9.17;;;7.60;84.70;;;7.45;77.57;98721.19;5070150;28;20657;-74
2021/03/05 10:08:28;;;;;;;15.73;9.30;;;7.60;82.30;;;7.56;77.25;98716.34;5065829;28;20648;-74
2021/03/05 10:11:09;;;;;;;15.37;9.17;;;7.70;82.90;;;7.52;75.77;98718.22;5070054;28;20714;-74
2021/03/05 10:13:47;;;;;;;15.17;9.10;;;7.60;80.90;;;7.44;75.62;98724.69;5053575;28;20637;-74
2021/03/05 10:16:18;;;;;;;15.20;10.07;;;7.50;80.70;;;7.45;77.51;98723.78;5070955;28;20652;-74
2021/03/05 10:18:49;;;;;;;15.37;9.97;;;7.50;82.10;;;7.54;77.66;98736.34;5062637;28;20685;-74
2021/03/05 10:21:19;;;;;;;14.50;9.27;;;7.70;84.10;;;7.56;76.06;98727.56;5069344;28;20631;-74
2021/03/05 10:23:47;;;;;;;16.83;8.93;;;7.70;82.10;;;7.53;76.65;98732.91;5062647;28;20686;-74
2021/03/05 10:26:18;;;;;;;15.53;8.97;;;7.60;81.30;;;7.51;76.47;98733.88;5057928;28;20642;-74
2021/03/05 10:28:54;;;;;;;13.70;8.80;;;7.70;82.20;;;7.52;76.82;98733.81;5059457;28;20667;-74
2021/03/05 10:31:23;;;;;;;15.40;9.67;;;7.70;82.50;;;7.48;76.31;98731.41;5057123;28;20743;-74
2021/03/05 10:33:50;;;;;;;14.73;8.83;;;7.60;82.00;;;7.53;77.81;98739.81;5060388;28;20646;-74
2021/03/05 10:36:18;;;;;;;16.77;9.03;;;7.70;82.50;;;7.67;77.28;98742.66;5064700;28;20667;-75
2021/03/05 10:38:46;;;;;;;15.10;9.30;;;7.80;82.70;;;7.70;76.95;98743.34;5064960;28;20626;-74
2021/03/05 10:41:13;;;;;;;14.93;9.03;;;7.80;81.70;;;7.79;76.38;98752.47;5067769;28;21063;-74
2021/03/05 10:43:42;;;;;;;14.77;9.33;;;7.90;82.20;;;7.84;76.65;98755.69;5067356;28;20686;-74